sensor_id;sensor_type;location;lat;lon;timestamp;temperature;humidity
59999;DHT22;45859;51.378;6.736;2023-07-16T00:00:30;18.60;99.90
59999;DHT22;45859;51.378;6.736;2023-07-16T00:02:56;18.60;99.90
59999;DHT22;45859;51.378;6.736;2023-07-16T00:05:22;18.60;99.90
59999;DHT22;45859;51.378;6.736;2023-07-16T00:07:47;18.50;99.90
59999;DHT22;45859;51.378;6.736;2023-07-16T00:10:13;18.50;99.90
59999;DHT22;45859;51.378;6.736;2023-07-16T00:12:39;18.50;99.90
59999;DHT22;45859;51.378;6.736;2023-07-16T00:15:05;18.40;99.90
59999;DHT22;45859;51.378;6.736;2023-07-16T00:17:32;18.50;99.90
59999;DHT22;45859;51.378;6.736;2023-07-16T00:19:58;18.50;99.90
59999;DHT22;45859;51.378;6.736;2023-07-16T00:22:24;18.50;99.90
59999;DHT22;45859;51.378;6.736;2023-07-16T00:24:49;18.50;99.90
59999;DHT22;45859;51.378;6.736;2023-07-16T00:27:15;18.40;99.90
59999;DHT22;45859;51.378;6.736;2023-07-16T00:29:41;18.40;99.90
59999;DHT22;45859;51.378;6.736;2023-07-16T00:32:06;18.30;99.90
59999;DHT22;45859;51.378;6.736;2023-07-16T00:34:32;18.10;99.90
59999;DHT22;45859;51.378;6.736;2023-07-16T00:36:58;18.00;99.90
59999;DHT22;45859;51.378;6.736;2023-07-16T00:39:28;17.90;99.90
59999;DHT22;45859;51.378;6.736;2023-07-16T00:41:53;17.90;99.90
59999;DHT22;45859;51.378;6.736;2023-07-16T00:44:19;17.80;99.90
59999;DHT22;45859;51.378;6.736;2023-07-16T00:46:45;17.80;99.90
59999;DHT22;45859;51.378;6.736;2023-07-16T00:49:10;17.70;99.90
59999;DHT22;45859;51.378;6.736;2023-07-16T00:51:36;17.60;99.90
59999;DHT22;45859;51.378;6.736;2023-07-16T00:54:02;17.70;99.90
59999;DHT22;45859;51.378;6.736;2023-07-16T00:56:28;17.50;99.90
59999;DHT22;45859;51.378;6.736;2023-07-16T00:58:54;17.40;99.90
59999;DHT22;45859;51.378;6.736;2023-07-16T01:01:20;17.40;99.90
59999;DHT22;45859;51.378;6.736;2023-07-16T01:03:46;17.30;99.90
59999;DHT22;45859;51.378;6.736;2023-07-16T01:06:18;17.30;99.90
59999;DHT22;45859;51.378;6.736;2023-07-16T01:08:49;17.30;99.90
59999;DHT22;45859;51.378;6.736;2023-07-16T01:11:17;17.30;99.90
59999;DHT22;45859;51.378;6.736;2023-07-16T01:13:44;17.30;99.90
59999;DHT22;45859;51.378;6.736;2023-07-16T01:16:23;17.30;99.90
59999;DHT22;45859;51.378;6.736;2023-07-16T01:18:50;17.20;99.90
59999;DHT22;45859;51.378;6.736;2023-07-16T01:21:19;17.20;99.90
59999;DHT22;45859;51.378;6.736;2023-07-16T01:29:28;17.10;99.90
59999;DHT22;45859;51.378;6.736;2023-07-16T01:32:02;17.00;99.90
59999;DHT22;45859;51.378;6.736;2023-07-16T01:34:31;17.00;99.90
59999;DHT22;45859;51.378;6.736;2023-07-16T01:36:59;16.90;99.90
59999;DHT22;45859;51.378;6.736;2023-07-16T01:39:25;18.30;99.90
59999;DHT22;45859;51.378;6.736;2023-07-16T01:41:51;16.80;99.90
59999;DHT22;45859;51.378;6.736;2023-07-16T01:44:17;16.80;99.90
59999;DHT22;45859;51.378;6.736;2023-07-16T01:46:42;16.90;99.90
59999;DHT22;45859;51.378;6.736;2023-07-16T01:49:08;16.90;99.90
59999;DHT22;45859;51.378;6.736;2023-07-16T01:51:33;16.90;99.90
59999;DHT22;45859;51.378;6.736;2023-07-16T01:53:59;16.90;99.90
59999;DHT22;45859;51.378;6.736;2023-07-16T01:56:25;16.90;99.90
59999;DHT22;45859;51.378;6.736;2023-07-16T01:58:50;17.00;99.90
59999;DHT22;45859;51.378;6.736;2023-07-16T02:01:16;17.00;99.90
59999;DHT22;45859;51.378;6.736;2023-07-16T02:03:42;17.00;99.90
59999;DHT22;45859;51.378;6.736;2023-07-16T02:06:07;16.90;99.90
59999;DHT22;45859;51.378;6.736;2023-07-16T02:08:33;17.00;99.90
59999;DHT22;45859;51.378;6.736;2023-07-16T02:10:58;17.00;99.90
59999;DHT22;45859;51.378;6.736;2023-07-16T02:13:24;16.90;99.90
59999;DHT22;45859;51.378;6.736;2023-07-16T02:15:50;16.80;99.90
59999;DHT22;45859;51.378;6.736;2023-07-16T02:18:15;16.80;99.90
59999;DHT22;45859;51.378;6.736;2023-07-16T02:20:41;16.70;99.90
59999;DHT22;45859;51.378;6.736;2023-07-16T02:23:08;16.70;99.90
59999;DHT22;45859;51.378;6.736;2023-07-16T02:25:34;16.60;99.90
59999;DHT22;45859;51.378;6.736;2023-07-16T02:27:59;16.60;99.90
59999;DHT22;45859;51.378;6.736;2023-07-16T02:30:25;16.50;99.90
59999;DHT22;45859;51.378;6.736;2023-07-16T02:32:51;16.50;99.90
59999;DHT22;45859;51.378;6.736;2023-07-16T02:35:17;16.50;99.90
59999;DHT22;45859;51.378;6.736;2023-07-16T02:37:43;16.50;99.90
59999;DHT22;45859;51.378;6.736;2023-07-16T02:40:08;16.50;99.90
59999;DHT22;45859;51.378;6.736;2023-07-16T02:42:34;16.50;99.90
59999;DHT22;45859;51.378;6.736;2023-07-16T02:45:00;16.50;99.90
59999;DHT22;45859;51.378;6.736;2023-07-16T02:47:25;16.50;99.90
59999;DHT22;45859;51.378;6.736;2023-07-16T02:49:52;16.40;99.90
59999;DHT22;45859;51.378;6.736;2023-07-16T02:52:17;16.40;99.90
59999;DHT22;45859;51.378;6.736;2023-07-16T02:54:43;16.40;99.90
59999;DHT22;45859;51.378;6.736;2023-07-16T02:57:09;16.40;99.90
59999;DHT22;45859;51.378;6.736;2023-07-16T02:59:34;16.40;99.90
59999;DHT22;45859;51.378;6.736;2023-07-16T03:02:00;16.50;99.90
59999;DHT22;45859;51.378;6.736;2023-07-16T03:04:26;16.50;99.90
59999;DHT22;45859;51.378;6.736;2023-07-16T03:06:52;16.50;99.90
59999;DHT22;45859;51.378;6.736;2023-07-16T03:09:17;16.60;99.90
59999;DHT22;45859;51.378;6.736;2023-07-16T03:11:43;16.60;99.90
59999;DHT22;45859;51.378;6.736;2023-07-16T03:14:09;16.70;99.90
59999;DHT22;45859;51.378;6.736;2023-07-16T03:16:34;16.60;99.90
59999;DHT22;45859;51.378;6.736;2023-07-16T03:19:00;16.60;99.90
59999;DHT22;45859;51.378;6.736;2023-07-16T03:21:26;16.60;99.90
59999;DHT22;45859;51.378;6.736;2023-07-16T03:23:51;16.60;99.90
59999;DHT22;45859;51.378;6.736;2023-07-16T03:26:17;16.60;99.90
59999;DHT22;45859;51.378;6.736;2023-07-16T03:28:43;16.60;99.90
59999;DHT22;45859;51.378;6.736;2023-07-16T03:31:08;16.60;99.90
59999;DHT22;45859;51.378;6.736;2023-07-16T03:33:34;16.70;99.90
59999;DHT22;45859;51.378;6.736;2023-07-16T03:35:59;16.70;99.90
59999;DHT22;45859;51.378;6.736;2023-07-16T03:38:25;16.70;99.90
59999;DHT22;45859;51.378;6.736;2023-07-16T03:40:51;16.80;99.90
59999;DHT22;45859;51.378;6.736;2023-07-16T03:43:17;16.80;99.90
59999;DHT22;45859;51.378;6.736;2023-07-16T03:45:43;16.80;99.90
59999;DHT22;45859;51.378;6.736;2023-07-16T03:48:09;16.70;99.90
59999;DHT22;45859;51.378;6.736;2023-07-16T03:50:35;16.70;99.90
59999;DHT22;45859;51.378;6.736;2023-07-16T03:53:02;16.60;99.90
59999;DHT22;45859;51.378;6.736;2023-07-16T03:55:29;16.60;99.90
59999;DHT22;45859;51.378;6.736;2023-07-16T03:57:54;16.60;99.90
59999;DHT22;45859;51.378;6.736;2023-07-16T04:00:20;16.60;99.90
59999;DHT22;45859;51.378;6.736;2023-07-16T04:02:46;16.50;99.90
59999;DHT22;45859;51.378;6.736;2023-07-16T04:05:12;16.60;99.90
59999;DHT22;45859;51.378;6.736;2023-07-16T04:07:37;16.60;99.90
59999;DHT22;45859;51.378;6.736;2023-07-16T04:10:04;16.50;99.90
59999;DHT22;45859;51.378;6.736;2023-07-16T04:12:29;16.50;99.90
59999;DHT22;45859;51.378;6.736;2023-07-16T04:14:57;16.60;99.90
59999;DHT22;45859;51.378;6.736;2023-07-16T04:17:23;16.60;99.90
59999;DHT22;45859;51.378;6.736;2023-07-16T04:19:49;16.70;99.90
59999;DHT22;45859;51.378;6.736;2023-07-16T04:22:15;16.80;99.90
59999;DHT22;45859;51.378;6.736;2023-07-16T04:24:40;16.80;99.90
59999;DHT22;45859;51.378;6.736;2023-07-16T04:27:06;16.80;99.90
59999;DHT22;45859;51.378;6.736;2023-07-16T04:29:32;16.80;99.90
59999;DHT22;45859;51.378;6.736;2023-07-16T04:31:58;16.80;99.90
59999;DHT22;45859;51.378;6.736;2023-07-16T04:34:23;16.80;99.90
59999;DHT22;45859;51.378;6.736;2023-07-16T04:36:49;16.80;99.90
59999;DHT22;45859;51.378;6.736;2023-07-16T04:39:15;16.80;99.90
59999;DHT22;45859;51.378;6.736;2023-07-16T04:41:40;16.90;99.90
59999;DHT22;45859;51.378;6.736;2023-07-16T04:44:06;16.90;99.90
59999;DHT22;45859;51.378;6.736;2023-07-16T04:46:32;16.90;99.90
59999;DHT22;45859;51.378;6.736;2023-07-16T04:48:57;17.00;99.90
59999;DHT22;45859;51.378;6.736;2023-07-16T04:51:23;17.20;99.90
59999;DHT22;45859;51.378;6.736;2023-07-16T04:53:49;17.30;99.90
59999;DHT22;45859;51.378;6.736;2023-07-16T04:56:15;17.40;99.90
59999;DHT22;45859;51.378;6.736;2023-07-16T04:58:42;17.40;99.90
59999;DHT22;45859;51.378;6.736;2023-07-16T05:01:08;17.40;99.90
59999;DHT22;45859;51.378;6.736;2023-07-16T05:03:34;17.40;99.90
59999;DHT22;45859;51.378;6.736;2023-07-16T05:06:00;17.50;99.90
59999;DHT22;45859;51.378;6.736;2023-07-16T05:08:26;17.50;99.90
59999;DHT22;45859;51.378;6.736;2023-07-16T05:10:51;17.50;99.90
59999;DHT22;45859;51.378;6.736;2023-07-16T05:13:17;17.60;99.90
59999;DHT22;45859;51.378;6.736;2023-07-16T05:15:46;17.50;99.90
59999;DHT22;45859;51.378;6.736;2023-07-16T05:18:12;17.60;99.90
59999;DHT22;45859;51.378;6.736;2023-07-16T05:20:37;17.60;99.90
59999;DHT22;45859;51.378;6.736;2023-07-16T05:23:03;17.80;99.90
59999;DHT22;45859;51.378;6.736;2023-07-16T05:25:29;17.80;99.90
59999;DHT22;45859;51.378;6.736;2023-07-16T05:27:55;18.00;99.90
59999;DHT22;45859;51.378;6.736;2023-07-16T05:30:21;18.10;99.90
59999;DHT22;45859;51.378;6.736;2023-07-16T05:32:47;18.20;99.90
59999;DHT22;45859;51.378;6.736;2023-07-16T05:35:13;18.30;99.90
59999;DHT22;45859;51.378;6.736;2023-07-16T05:37:38;18.30;99.90
59999;DHT22;45859;51.378;6.736;2023-07-16T05:40:05;18.40;99.90
59999;DHT22;45859;51.378;6.736;2023-07-16T05:42:31;18.50;99.90
59999;DHT22;45859;51.378;6.736;2023-07-16T05:44:57;18.60;99.90
59999;DHT22;45859;51.378;6.736;2023-07-16T05:47:22;18.70;99.90
59999;DHT22;45859;51.378;6.736;2023-07-16T05:49:48;18.70;99.90
59999;DHT22;45859;51.378;6.736;2023-07-16T05:52:13;18.80;99.90
59999;DHT22;45859;51.378;6.736;2023-07-16T05:54:39;18.80;99.90
59999;DHT22;45859;51.378;6.736;2023-07-16T05:57:05;19.00;99.90
59999;DHT22;45859;51.378;6.736;2023-07-16T05:59:31;19.00;99.90
59999;DHT22;45859;51.378;6.736;2023-07-16T06:02:01;19.20;99.90
59999;DHT22;45859;51.378;6.736;2023-07-16T06:04:27;19.60;99.90
59999;DHT22;45859;51.378;6.736;2023-07-16T06:06:53;20.10;99.90
59999;DHT22;45859;51.378;6.736;2023-07-16T06:09:19;20.60;99.90
59999;DHT22;45859;51.378;6.736;2023-07-16T06:11:46;21.20;99.90
59999;DHT22;45859;51.378;6.736;2023-07-16T06:14:13;21.70;99.90
59999;DHT22;45859;51.378;6.736;2023-07-16T06:16:38;22.20;99.90
59999;DHT22;45859;51.378;6.736;2023-07-16T06:19:04;22.60;99.90
59999;DHT22;45859;51.378;6.736;2023-07-16T06:21:30;22.40;99.90
59999;DHT22;45859;51.378;6.736;2023-07-16T06:23:55;22.70;99.90
59999;DHT22;45859;51.378;6.736;2023-07-16T06:26:21;22.30;99.90
59999;DHT22;45859;51.378;6.736;2023-07-16T06:28:47;22.20;99.90
59999;DHT22;45859;51.378;6.736;2023-07-16T06:31:18;22.10;99.90
59999;DHT22;45859;51.378;6.736;2023-07-16T06:33:44;22.20;99.90
59999;DHT22;45859;51.378;6.736;2023-07-16T06:36:12;22.00;99.90
59999;DHT22;45859;51.378;6.736;2023-07-16T06:38:38;22.20;99.90
59999;DHT22;45859;51.378;6.736;2023-07-16T06:41:04;22.60;99.90
59999;DHT22;45859;51.378;6.736;2023-07-16T06:43:29;22.70;99.90
59999;DHT22;45859;51.378;6.736;2023-07-16T06:45:55;22.70;99.90
59999;DHT22;45859;51.378;6.736;2023-07-16T06:48:21;23.00;99.90
59999;DHT22;45859;51.378;6.736;2023-07-16T06:50:46;22.70;99.90
59999;DHT22;45859;51.378;6.736;2023-07-16T06:53:12;22.10;99.90
59999;DHT22;45859;51.378;6.736;2023-07-16T06:55:38;22.40;99.90
59999;DHT22;45859;51.378;6.736;2023-07-16T06:58:03;22.30;99.90
59999;DHT22;45859;51.378;6.736;2023-07-16T07:00:29;22.40;99.90
59999;DHT22;45859;51.378;6.736;2023-07-16T07:02:55;22.50;99.90
59999;DHT22;45859;51.378;6.736;2023-07-16T07:05:21;23.00;99.90
59999;DHT22;45859;51.378;6.736;2023-07-16T07:07:47;23.60;99.90
59999;DHT22;45859;51.378;6.736;2023-07-16T07:10:13;23.50;99.90
59999;DHT22;45859;51.378;6.736;2023-07-16T07:12:39;23.50;99.90
59999;DHT22;45859;51.378;6.736;2023-07-16T07:15:08;23.70;99.90
59999;DHT22;45859;51.378;6.736;2023-07-16T07:17:33;23.90;99.90
59999;DHT22;45859;51.378;6.736;2023-07-16T07:20:00;24.40;99.90
59999;DHT22;45859;51.378;6.736;2023-07-16T07:22:26;24.70;99.90
59999;DHT22;45859;51.378;6.736;2023-07-16T07:24:52;24.80;99.90
59999;DHT22;45859;51.378;6.736;2023-07-16T07:27:17;24.80;99.90
59999;DHT22;45859;51.378;6.736;2023-07-16T07:29:43;24.70;99.90
59999;DHT22;45859;51.378;6.736;2023-07-16T07:32:09;25.40;99.90
59999;DHT22;45859;51.378;6.736;2023-07-16T07:34:35;25.80;99.90
59999;DHT22;45859;51.378;6.736;2023-07-16T07:37:00;25.90;99.90
59999;DHT22;45859;51.378;6.736;2023-07-16T07:39:26;26.30;99.90
59999;DHT22;45859;51.378;6.736;2023-07-16T07:41:51;25.90;99.90
59999;DHT22;45859;51.378;6.736;2023-07-16T07:44:17;25.30;99.90
59999;DHT22;45859;51.378;6.736;2023-07-16T07:46:43;25.40;99.90
59999;DHT22;45859;51.378;6.736;2023-07-16T07:49:08;25.30;99.90
59999;DHT22;45859;51.378;6.736;2023-07-16T07:51:34;25.50;99.90
59999;DHT22;45859;51.378;6.736;2023-07-16T07:54:00;25.10;99.90
59999;DHT22;45859;51.378;6.736;2023-07-16T07:56:25;25.00;99.90
59999;DHT22;45859;51.378;6.736;2023-07-16T07:58:51;24.60;99.90
59999;DHT22;45859;51.378;6.736;2023-07-16T08:01:17;24.10;99.90
59999;DHT22;45859;51.378;6.736;2023-07-16T08:03:42;24.50;99.90
59999;DHT22;45859;51.378;6.736;2023-07-16T08:06:08;24.60;99.90
59999;DHT22;45859;51.378;6.736;2023-07-16T08:08:34;25.30;99.90
59999;DHT22;45859;51.378;6.736;2023-07-16T08:13:29;25.80;99.90
59999;DHT22;45859;51.378;6.736;2023-07-16T08:15:55;25.50;99.90
59999;DHT22;45859;51.378;6.736;2023-07-16T08:18:21;25.50;99.90
59999;DHT22;45859;51.378;6.736;2023-07-16T08:20:47;25.30;99.90
59999;DHT22;45859;51.378;6.736;2023-07-16T08:23:12;25.10;99.90
59999;DHT22;45859;51.378;6.736;2023-07-16T08:25:38;25.50;99.90
59999;DHT22;45859;51.378;6.736;2023-07-16T08:28:04;25.10;99.90
59999;DHT22;45859;51.378;6.736;2023-07-16T08:30:32;24.70;99.90
59999;DHT22;45859;51.378;6.736;2023-07-16T08:32:58;25.20;99.90
59999;DHT22;45859;51.378;6.736;2023-07-16T08:35:24;24.20;99.90
59999;DHT22;45859;51.378;6.736;2023-07-16T08:37:49;24.10;99.90
59999;DHT22;45859;51.378;6.736;2023-07-16T08:40:15;23.70;99.90
59999;DHT22;45859;51.378;6.736;2023-07-16T08:42:44;23.70;99.90
59999;DHT22;45859;51.378;6.736;2023-07-16T08:45:11;23.70;99.90
59999;DHT22;45859;51.378;6.736;2023-07-16T08:47:37;23.40;99.90
59999;DHT22;45859;51.378;6.736;2023-07-16T08:50:03;23.80;99.90
59999;DHT22;45859;51.378;6.736;2023-07-16T08:52:29;23.50;99.90
59999;DHT22;45859;51.378;6.736;2023-07-16T08:54:56;23.30;99.90
59999;DHT22;45859;51.378;6.736;2023-07-16T08:57:22;23.00;99.90
59999;DHT22;45859;51.378;6.736;2023-07-16T08:59:49;23.50;99.90
59999;DHT22;45859;51.378;6.736;2023-07-16T09:02:19;23.70;99.90
59999;DHT22;45859;51.378;6.736;2023-07-16T09:04:48;24.40;99.90
59999;DHT22;45859;51.378;6.736;2023-07-16T09:07:15;24.40;99.90
59999;DHT22;45859;51.378;6.736;2023-07-16T09:09:41;23.90;99.90
59999;DHT22;45859;51.378;6.736;2023-07-16T09:12:11;23.90;99.90
59999;DHT22;45859;51.378;6.736;2023-07-16T09:14:36;23.80;99.90
59999;DHT22;45859;51.378;6.736;2023-07-16T09:17:02;24.40;99.90
59999;DHT22;45859;51.378;6.736;2023-07-16T09:19:32;25.40;99.90
59999;DHT22;45859;51.378;6.736;2023-07-16T09:21:58;25.60;99.90
59999;DHT22;45859;51.378;6.736;2023-07-16T09:24:23;25.40;99.90
59999;DHT22;45859;51.378;6.736;2023-07-16T09:26:50;25.00;99.90
59999;DHT22;45859;51.378;6.736;2023-07-16T09:29:17;24.60;99.90
59999;DHT22;45859;51.378;6.736;2023-07-16T09:32:02;24.60;99.90
59999;DHT22;45859;51.378;6.736;2023-07-16T09:34:29;24.40;99.90
59999;DHT22;45859;51.378;6.736;2023-07-16T09:36:56;24.30;99.90
59999;DHT22;45859;51.378;6.736;2023-07-16T09:39:22;24.00;99.90
59999;DHT22;45859;51.378;6.736;2023-07-16T09:41:49;23.40;99.90
59999;DHT22;45859;51.378;6.736;2023-07-16T09:44:16;23.10;99.90
59999;DHT22;45859;51.378;6.736;2023-07-16T09:46:42;22.90;99.90
59999;DHT22;45859;51.378;6.736;2023-07-16T09:49:09;22.70;99.90
59999;DHT22;45859;51.378;6.736;2023-07-16T09:51:39;22.40;99.90
59999;DHT22;45859;51.378;6.736;2023-07-16T09:54:06;22.20;99.90
59999;DHT22;45859;51.378;6.736;2023-07-16T09:56:36;22.50;99.90
59999;DHT22;45859;51.378;6.736;2023-07-16T09:59:08;22.60;99.90
59999;DHT22;45859;51.378;6.736;2023-07-16T10:01:37;23.10;99.90
59999;DHT22;45859;51.378;6.736;2023-07-16T10:04:13;23.50;99.90
59999;DHT22;45859;51.378;6.736;2023-07-16T10:06:52;23.30;99.90
59999;DHT22;45859;51.378;6.736;2023-07-16T10:09:50;22.20;99.90
59999;DHT22;45859;51.378;6.736;2023-07-16T10:12:20;23.10;99.90
59999;DHT22;45859;51.378;6.736;2023-07-16T10:14:48;23.20;99.90
59999;DHT22;45859;51.378;6.736;2023-07-16T10:17:16;23.80;99.90
59999;DHT22;45859;51.378;6.736;2023-07-16T10:22:40;23.60;99.90
59999;DHT22;45859;51.378;6.736;2023-07-16T10:27:48;23.10;99.90
59999;DHT22;45859;51.378;6.736;2023-07-16T10:30:14;23.50;99.90
59999;DHT22;45859;51.378;6.736;2023-07-16T10:32:40;23.80;99.90
59999;DHT22;45859;51.378;6.736;2023-07-16T10:35:07;23.90;99.90
59999;DHT22;45859;51.378;6.736;2023-07-16T10:37:37;24.10;99.90
59999;DHT22;45859;51.378;6.736;2023-07-16T10:40:04;24.10;99.90
59999;DHT22;45859;51.378;6.736;2023-07-16T10:42:32;23.80;99.90
59999;DHT22;45859;51.378;6.736;2023-07-16T10:45:03;23.60;99.90
59999;DHT22;45859;51.378;6.736;2023-07-16T10:47:33;23.40;99.90
59999;DHT22;45859;51.378;6.736;2023-07-16T10:50:00;23.50;99.90
59999;DHT22;45859;51.378;6.736;2023-07-16T10:52:26;23.60;99.90
59999;DHT22;45859;51.378;6.736;2023-07-16T10:54:52;23.70;99.90
59999;DHT22;45859;51.378;6.736;2023-07-16T10:57:26;23.70;99.90
59999;DHT22;45859;51.378;6.736;2023-07-16T10:59:53;23.60;99.90
59999;DHT22;45859;51.378;6.736;2023-07-16T11:02:21;23.60;99.90
59999;DHT22;45859;51.378;6.736;2023-07-16T11:04:47;23.70;99.90
59999;DHT22;45859;51.378;6.736;2023-07-16T11:07:14;23.90;99.90
59999;DHT22;45859;51.378;6.736;2023-07-16T11:09:47;23.80;99.90
59999;DHT22;45859;51.378;6.736;2023-07-16T11:12:20;23.90;99.90
59999;DHT22;45859;51.378;6.736;2023-07-16T11:14:47;24.20;99.90
59999;DHT22;45859;51.378;6.736;2023-07-16T11:17:13;24.30;99.90
59999;DHT22;45859;51.378;6.736;2023-07-16T11:19:40;23.80;99.90
59999;DHT22;45859;51.378;6.736;2023-07-16T11:22:09;23.70;99.90
59999;DHT22;45859;51.378;6.736;2023-07-16T11:24:46;23.30;99.90
59999;DHT22;45859;51.378;6.736;2023-07-16T11:27:22;23.00;99.90
59999;DHT22;45859;51.378;6.736;2023-07-16T11:29:50;23.10;99.90
59999;DHT22;45859;51.378;6.736;2023-07-16T11:32:32;23.10;99.90
59999;DHT22;45859;51.378;6.736;2023-07-16T11:34:59;23.10;99.90
59999;DHT22;45859;51.378;6.736;2023-07-16T11:37:27;23.20;99.90
59999;DHT22;45859;51.378;6.736;2023-07-16T11:39:57;23.40;99.90
59999;DHT22;45859;51.378;6.736;2023-07-16T11:42:27;23.40;99.90
59999;DHT22;45859;51.378;6.736;2023-07-16T11:44:53;23.30;99.90
59999;DHT22;45859;51.378;6.736;2023-07-16T11:47:21;23.30;99.90
59999;DHT22;45859;51.378;6.736;2023-07-16T11:49:47;23.40;99.90
59999;DHT22;45859;51.378;6.736;2023-07-16T11:52:13;23.40;99.90
59999;DHT22;45859;51.378;6.736;2023-07-16T11:54:38;23.40;99.90
59999;DHT22;45859;51.378;6.736;2023-07-16T11:57:04;23.50;99.90
59999;DHT22;45859;51.378;6.736;2023-07-16T11:59:30;23.80;99.90
59999;DHT22;45859;51.378;6.736;2023-07-16T12:01:55;23.80;99.90
59999;DHT22;45859;51.378;6.736;2023-07-16T12:04:21;23.60;99.90
59999;DHT22;45859;51.378;6.736;2023-07-16T12:06:47;23.40;99.90
59999;DHT22;45859;51.378;6.736;2023-07-16T12:09:12;23.20;99.90
59999;DHT22;45859;51.378;6.736;2023-07-16T12:11:38;23.20;99.90
59999;DHT22;45859;51.378;6.736;2023-07-16T12:14:05;23.10;99.90
59999;DHT22;45859;51.378;6.736;2023-07-16T12:16:31;23.40;99.90
59999;DHT22;45859;51.378;6.736;2023-07-16T12:18:57;23.50;99.90
59999;DHT22;45859;51.378;6.736;2023-07-16T12:21:22;23.60;99.90
59999;DHT22;45859;51.378;6.736;2023-07-16T12:23:48;23.60;99.90
59999;DHT22;45859;51.378;6.736;2023-07-16T12:26:14;23.50;99.90
59999;DHT22;45859;51.378;6.736;2023-07-16T12:28:40;23.50;99.90
59999;DHT22;45859;51.378;6.736;2023-07-16T12:31:05;23.50;99.90
59999;DHT22;45859;51.378;6.736;2023-07-16T12:33:31;23.50;99.90
59999;DHT22;45859;51.378;6.736;2023-07-16T12:35:57;23.50;99.90
59999;DHT22;45859;51.378;6.736;2023-07-16T12:38:22;23.80;99.90
59999;DHT22;45859;51.378;6.736;2023-07-16T12:40:48;23.80;99.90
59999;DHT22;45859;51.378;6.736;2023-07-16T12:43:14;24.10;99.90
59999;DHT22;45859;51.378;6.736;2023-07-16T12:45:39;24.20;99.90
59999;DHT22;45859;51.378;6.736;2023-07-16T12:48:05;24.60;99.90
59999;DHT22;45859;51.378;6.736;2023-07-16T12:50:31;24.40;99.90
59999;DHT22;45859;51.378;6.736;2023-07-16T12:52:57;24.30;99.90
59999;DHT22;45859;51.378;6.736;2023-07-16T12:55:22;24.00;99.90
59999;DHT22;45859;51.378;6.736;2023-07-16T12:57:49;24.10;99.90
59999;DHT22;45859;51.378;6.736;2023-07-16T13:00:15;23.90;99.90
59999;DHT22;45859;51.378;6.736;2023-07-16T13:02:41;23.90;99.90
59999;DHT22;45859;51.378;6.736;2023-07-16T13:05:07;24.10;99.90
59999;DHT22;45859;51.378;6.736;2023-07-16T13:07:33;24.40;99.90
59999;DHT22;45859;51.378;6.736;2023-07-16T13:09:59;24.20;99.90
59999;DHT22;45859;51.378;6.736;2023-07-16T13:12:25;24.20;99.90
59999;DHT22;45859;51.378;6.736;2023-07-16T13:14:51;24.20;99.90
59999;DHT22;45859;51.378;6.736;2023-07-16T13:17:16;23.90;99.90
59999;DHT22;45859;51.378;6.736;2023-07-16T13:19:44;23.70;99.90
59999;DHT22;45859;51.378;6.736;2023-07-16T13:22:10;23.70;99.90
59999;DHT22;45859;51.378;6.736;2023-07-16T13:24:35;24.00;99.90
59999;DHT22;45859;51.378;6.736;2023-07-16T13:27:01;24.30;99.90
59999;DHT22;45859;51.378;6.736;2023-07-16T13:29:28;24.40;99.90
59999;DHT22;45859;51.378;6.736;2023-07-16T13:31:53;24.60;99.90
59999;DHT22;45859;51.378;6.736;2023-07-16T13:34:19;24.80;99.90
59999;DHT22;45859;51.378;6.736;2023-07-16T13:36:45;25.00;99.90
59999;DHT22;45859;51.378;6.736;2023-07-16T13:39:10;25.00;99.90
59999;DHT22;45859;51.378;6.736;2023-07-16T13:41:38;25.10;99.90
59999;DHT22;45859;51.378;6.736;2023-07-16T13:44:04;25.30;99.90
59999;DHT22;45859;51.378;6.736;2023-07-16T13:46:30;25.30;99.90
59999;DHT22;45859;51.378;6.736;2023-07-16T13:48:56;25.10;99.90
59999;DHT22;45859;51.378;6.736;2023-07-16T13:51:22;24.90;99.90
59999;DHT22;45859;51.378;6.736;2023-07-16T13:53:51;24.90;99.90
59999;DHT22;45859;51.378;6.736;2023-07-16T13:56:17;24.40;99.90
59999;DHT22;45859;51.378;6.736;2023-07-16T13:58:43;24.20;99.90
59999;DHT22;45859;51.378;6.736;2023-07-16T14:01:08;24.30;99.90
59999;DHT22;45859;51.378;6.736;2023-07-16T14:03:34;24.30;99.90
59999;DHT22;45859;51.378;6.736;2023-07-16T14:05:59;24.20;99.90
59999;DHT22;45859;51.378;6.736;2023-07-16T14:08:25;24.40;99.90
59999;DHT22;45859;51.378;6.736;2023-07-16T14:10:53;24.30;99.90
59999;DHT22;45859;51.378;6.736;2023-07-16T14:13:19;24.40;99.90
59999;DHT22;45859;51.378;6.736;2023-07-16T14:15:45;24.30;99.90
59999;DHT22;45859;51.378;6.736;2023-07-16T14:18:11;24.50;99.90
59999;DHT22;45859;51.378;6.736;2023-07-16T14:20:37;24.70;99.90
59999;DHT22;45859;51.378;6.736;2023-07-16T14:23:02;24.90;99.90
59999;DHT22;45859;51.378;6.736;2023-07-16T14:25:28;24.80;99.90
59999;DHT22;45859;51.378;6.736;2023-07-16T14:27:54;24.80;99.90
59999;DHT22;45859;51.378;6.736;2023-07-16T14:30:20;24.60;99.90
59999;DHT22;45859;51.378;6.736;2023-07-16T14:32:45;24.60;99.90
59999;DHT22;45859;51.378;6.736;2023-07-16T14:35:11;24.60;99.90
59999;DHT22;45859;51.378;6.736;2023-07-16T14:37:37;24.60;99.90
59999;DHT22;45859;51.378;6.736;2023-07-16T14:40:03;24.40;99.90
59999;DHT22;45859;51.378;6.736;2023-07-16T14:42:33;24.40;99.90
59999;DHT22;45859;51.378;6.736;2023-07-16T14:44:58;24.40;99.90
59999;DHT22;45859;51.378;6.736;2023-07-16T14:47:24;24.50;99.90
59999;DHT22;45859;51.378;6.736;2023-07-16T14:49:50;24.40;99.90
59999;DHT22;45859;51.378;6.736;2023-07-16T14:52:15;24.30;99.90
59999;DHT22;45859;51.378;6.736;2023-07-16T14:54:41;24.30;99.90
59999;DHT22;45859;51.378;6.736;2023-07-16T14:57:07;24.20;99.90
59999;DHT22;45859;51.378;6.736;2023-07-16T14:59:32;24.40;99.90
59999;DHT22;45859;51.378;6.736;2023-07-16T15:01:58;24.40;99.90
59999;DHT22;45859;51.378;6.736;2023-07-16T15:04:24;24.50;99.90
59999;DHT22;45859;51.378;6.736;2023-07-16T15:06:50;24.50;99.90
59999;DHT22;45859;51.378;6.736;2023-07-16T15:09:16;24.50;99.90
59999;DHT22;45859;51.378;6.736;2023-07-16T15:11:41;24.40;99.90
59999;DHT22;45859;51.378;6.736;2023-07-16T15:14:07;24.40;99.90
59999;DHT22;45859;51.378;6.736;2023-07-16T15:16:33;24.30;99.90
59999;DHT22;45859;51.378;6.736;2023-07-16T15:18:59;24.30;99.90
59999;DHT22;45859;51.378;6.736;2023-07-16T15:21:25;24.50;99.90
59999;DHT22;45859;51.378;6.736;2023-07-16T15:23:51;24.30;99.90
59999;DHT22;45859;51.378;6.736;2023-07-16T15:26:16;24.40;99.90
59999;DHT22;45859;51.378;6.736;2023-07-16T15:28:42;24.30;99.90
59999;DHT22;45859;51.378;6.736;2023-07-16T15:31:09;24.20;99.90
59999;DHT22;45859;51.378;6.736;2023-07-16T15:33:34;24.30;99.90
59999;DHT22;45859;51.378;6.736;2023-07-16T15:36:00;24.40;99.90
59999;DHT22;45859;51.378;6.736;2023-07-16T15:38:26;24.50;99.90